Portada
METAR-TAF:

METAR-TAF

Aeroports :

Base aèria

Meppen, Alemanya

latitud: 52-43-24N, longitud: 007-19-35E, altitud: 21 m

Observació

L'informe es va fer fa 57 minuts, a les 15:20 UTC
Vent 8 kt del Sud/Sud-Oest
Temperatura 5°C
Humitat 70%
Pressió 1018 hPa

METAR: ETWM 101520Z AUTO 20008KT //// // ////// 05/00 Q1018 ///

Hora: 17:17 (16:17 UTC)


TAF: manca

Observacions i pronòstics meteorològics de més de 4000 aeroports (METAR i TAF).

Les estacions disponibles són els punts grocs i vermells al mapa.

Posi el ratolí al punt desitjat per veure el nom de l'estació.

Feu clic per veure les observacions i els pronòstics meteorològics.

Per canviar el mapa: feu clic els botons verds amb una creu de color negre per apropar; al botó verd amb un guió per allunyar la imatge; o en les fletxes verdes per a mapes adjacents.


METAR-TAF: